Aviation Digital Data Service (ADDS)

Output produced by METARs form (0311 UTC 17 January 2018)
found at http://www.aviationweather.gov/adds/metars/
 
METAR text: KIDI 170255Z AUTO 30006G12KT 4SM BR OVC012 M09/M11 A3042 RMK A01
Conditions at: KIDI (INDIANA/STEWART , PA, US) observed 0255 UTC 17 January 2018
Temperature: -9.0°C (16°F)
Dewpoint: -11.0°C (12°F) [RH = 85%]
Pressure (altimeter): 30.42 inches Hg (1030.2 mb)
Winds: from the WNW (300 degrees) at 7 MPH (6 knots; 3.1 m/s)
gusting to 14 MPH (12 knots; 6.2 m/s)
Visibility: 4 miles (6 km)
Ceiling: 1200 feet AGL
Clouds: overcast cloud deck at 1200 feet AGL
Weather: BR  (mist)

METAR text: KIDI 170235Z AUTO 29005KT 5SM BR FEW008 BKN012 OVC017 M09/M11 A3042 RMK A01
Conditions at: KIDI (INDIANA/STEWART , PA, US) observed 0235 UTC 17 January 2018
Temperature: -9.0°C (16°F)
Dewpoint: -11.0°C (12°F) [RH = 85%]
Pressure (altimeter): 30.42 inches Hg (1030.2 mb)
Winds: from the WNW (290 degrees) at 6 MPH (5 knots; 2.6 m/s)
Visibility: 5 miles (8 km)
Ceiling: 1200 feet AGL
Clouds: few clouds at 800 feet AGL
broken clouds at 1200 feet AGL
overcast cloud deck at 1700 feet AGL
Weather: BR  (mist)

METAR text: KIDI 170215Z AUTO 30005KT 5SM BR BKN014 OVC024 M09/M11 A3042 RMK A01
Conditions at: KIDI (INDIANA/STEWART , PA, US) observed 0215 UTC 17 January 2018
Temperature: -9.0°C (16°F)
Dewpoint: -11.0°C (12°F) [RH = 85%]
Pressure (altimeter): 30.42 inches Hg (1030.2 mb)
Winds: from the WNW (300 degrees) at 6 MPH (5 knots; 2.6 m/s)
Visibility: 5 miles (8 km)
Ceiling: 1400 feet AGL
Clouds: broken clouds at 1400 feet AGL
overcast cloud deck at 2400 feet AGL
Weather: BR  (mist)

METAR text: KIDI 170155Z AUTO VRB05G13KT 2SM BR FEW009 BKN013 OVC023 M09/M10 A3042 RMK A01
Conditions at: KIDI (INDIANA/STEWART , PA, US) observed 0155 UTC 17 January 2018
Temperature: -9.0°C (16°F)
Dewpoint: -10.0°C (14°F) [RH = 92%]
Pressure (altimeter): 30.42 inches Hg (1030.2 mb)
Winds: variable direction winds at 6 MPH (5 knots; 2.6 m/s)
gusting to 15 MPH (13 knots; 6.8 m/s)
Visibility: 2.00 miles (3.22 km)
Ceiling: 1300 feet AGL
Clouds: few clouds at 900 feet AGL
broken clouds at 1300 feet AGL
overcast cloud deck at 2300 feet AGL
Weather: BR  (mist)

METAR text: KIDI 170135Z AUTO 29006KT 2SM BR FEW004 BKN010 OVC020 M08/M09 A3041 RMK A01
Conditions at: KIDI (INDIANA/STEWART , PA, US) observed 0135 UTC 17 January 2018
Temperature: -8.0°C (18°F)
Dewpoint: -9.0°C (16°F) [RH = 92%]
Pressure (altimeter): 30.41 inches Hg (1029.9 mb)
Winds: from the WNW (290 degrees) at 7 MPH (6 knots; 3.1 m/s)
Visibility: 2.00 miles (3.22 km)
Ceiling: 1000 feet AGL
Clouds: few clouds at 400 feet AGL
broken clouds at 1000 feet AGL
overcast cloud deck at 2000 feet AGL
Weather: BR  (mist)

METAR text: KIDI 170115Z AUTO 29005G10KT 2SM BR BKN009 BKN014 OVC019 M08/M09 A3040 RMK A01
Conditions at: KIDI (INDIANA/STEWART , PA, US) observed 0115 UTC 17 January 2018
Temperature: -8.0°C (18°F)
Dewpoint: -9.0°C (16°F) [RH = 92%]
Pressure (altimeter): 30.40 inches Hg (1029.5 mb)
Winds: from the WNW (290 degrees) at 6 MPH (5 knots; 2.6 m/s)
gusting to 12 MPH (10 knots; 5.2 m/s)
Visibility: 2.00 miles (3.22 km)
Ceiling: 900 feet AGL
Clouds: broken clouds at 900 feet AGL
broken clouds at 1400 feet AGL
overcast cloud deck at 1900 feet AGL
Weather: BR  (mist)

METAR text: KIDI 170055Z AUTO 30008G15KT 1 3/4SM BR SCT004 BKN010 OVC014 M07/M08 A3039 RMK A01
Conditions at: KIDI (INDIANA/STEWART , PA, US) observed 0055 UTC 17 January 2018
Temperature: -7.0°C (19°F)
Dewpoint: -8.0°C (18°F) [RH = 93%]
Pressure (altimeter): 30.39 inches Hg (1029.2 mb)
Winds: from the WNW (300 degrees) at 9 MPH (8 knots; 4.2 m/s)
gusting to 17 MPH (15 knots; 7.8 m/s)
Visibility: 1.75 miles (2.82 km)
Ceiling: 1000 feet AGL
Clouds: scattered clouds at 400 feet AGL
broken clouds at 1000 feet AGL
overcast cloud deck at 1400 feet AGL
Weather: BR  (mist)

METAR text: KIDI 170035Z AUTO 29005KT 1 1/2SM BR SCT004 BKN010 OVC014 M06/M07 A3038 RMK A01
Conditions at: KIDI (INDIANA/STEWART , PA, US) observed 0035 UTC 17 January 2018
Temperature: -6.0°C (21°F)
Dewpoint: -7.0°C (19°F) [RH = 93%]
Pressure (altimeter): 30.38 inches Hg (1028.9 mb)
Winds: from the WNW (290 degrees) at 6 MPH (5 knots; 2.6 m/s)
Visibility: 1.50 miles (2.41 km)
Ceiling: 1000 feet AGL
Clouds: scattered clouds at 400 feet AGL
broken clouds at 1000 feet AGL
overcast cloud deck at 1400 feet AGL
Weather: BR  (mist)

METAR text: KIDI 170015Z AUTO 31008KT 1 3/4SM BR SCT004 OVC009 M05/M06 A3037 RMK A01
Conditions at: KIDI (INDIANA/STEWART , PA, US) observed 0015 UTC 17 January 2018
Temperature: -5.0°C (23°F)
Dewpoint: -6.0°C (21°F) [RH = 93%]
Pressure (altimeter): 30.37 inches Hg (1028.5 mb)
Winds: from the NW (310 degrees) at 9 MPH (8 knots; 4.2 m/s)
Visibility: 1.75 miles (2.82 km)
Ceiling: 900 feet AGL
Clouds: scattered clouds at 400 feet AGL
overcast cloud deck at 900 feet AGL
Weather: BR  (mist)

METAR text: KIDI 162355Z AUTO 25010KT 2SM BR FEW004 BKN009 OVC014 M05/M05 A3036 RMK A01
Conditions at: KIDI (INDIANA/STEWART , PA, US) observed 2355 UTC 16 January 2018
Temperature: -5.0°C (23°F)
Dewpoint: -5.0°C (23°F) [RH = 100%]
Pressure (altimeter): 30.36 inches Hg (1028.2 mb)
Winds: from the WSW (250 degrees) at 12 MPH (10 knots; 5.2 m/s)
Visibility: 2.00 miles (3.22 km)
Ceiling: 900 feet AGL
Clouds: few clouds at 400 feet AGL
broken clouds at 900 feet AGL
overcast cloud deck at 1400 feet AGL
Weather: BR  (mist)

METAR text: KIDI 162335Z AUTO 26007KT 1 3/4SM BR SCT003 BKN007 OVC029 M04/M05 A3036 RMK A01
Conditions at: KIDI (INDIANA/STEWART , PA, US) observed 2335 UTC 16 January 2018
Temperature: -4.0°C (25°F)
Dewpoint: -5.0°C (23°F) [RH = 93%]
Pressure (altimeter): 30.36 inches Hg (1028.2 mb)
Winds: from the W (260 degrees) at 8 MPH (7 knots; 3.6 m/s)
Visibility: 1.75 miles (2.82 km)
Ceiling: 700 feet AGL
Clouds: scattered clouds at 300 feet AGL
broken clouds at 700 feet AGL
overcast cloud deck at 2900 feet AGL
Weather: BR  (mist)

METAR text: KIDI 162315Z AUTO 25004KT 1 1/2SM BR BKN003 BKN007 OVC027 M04/M05 A3035 RMK A01
Conditions at: KIDI (INDIANA/STEWART , PA, US) observed 2315 UTC 16 January 2018
Temperature: -4.0°C (25°F)
Dewpoint: -5.0°C (23°F) [RH = 93%]
Pressure (altimeter): 30.35 inches Hg (1027.9 mb)
Winds: from the WSW (250 degrees) at 5 MPH (4 knots; 2.1 m/s)
Visibility: 1.50 miles (2.41 km)
Ceiling: 300 feet AGL
Clouds: broken clouds at 300 feet AGL
broken clouds at 700 feet AGL
overcast cloud deck at 2700 feet AGL
Weather: BR  (mist)

METAR text: KIDI 162255Z AUTO 25006KT 1 3/4SM BR BKN004 BKN020 OVC026 M04/M05 A3035 RMK A01
Conditions at: KIDI (INDIANA/STEWART , PA, US) observed 2255 UTC 16 January 2018
Temperature: -4.0°C (25°F)
Dewpoint: -5.0°C (23°F) [RH = 93%]
Pressure (altimeter): 30.35 inches Hg (1027.9 mb)
Winds: from the WSW (250 degrees) at 7 MPH (6 knots; 3.1 m/s)
Visibility: 1.75 miles (2.82 km)
Ceiling: 400 feet AGL
Clouds: broken clouds at 400 feet AGL
broken clouds at 2000 feet AGL
overcast cloud deck at 2600 feet AGL
Weather: BR  (mist)

METAR text: KIDI 162235Z AUTO 28007G13KT 1SM BR OVC004 M04/M04 A3034 RMK A01
Conditions at: KIDI (INDIANA/STEWART , PA, US) observed 2235 UTC 16 January 2018
Temperature: -4.0°C (25°F)
Dewpoint: -4.0°C (25°F) [RH = 100%]
Pressure (altimeter): 30.34 inches Hg (1027.5 mb)
Winds: from the W (280 degrees) at 8 MPH (7 knots; 3.6 m/s)
gusting to 15 MPH (13 knots; 6.8 m/s)
Visibility: 1.00 miles (1.61 km)
Ceiling: 400 feet AGL
Clouds: overcast cloud deck at 400 feet AGL
Weather: BR  (mist)

METAR text: KIDI 162215Z AUTO 31008G15KT 1/2SM FZFG OVC004 M03/M03 A3033 RMK A01
Conditions at: KIDI (INDIANA/STEWART , PA, US) observed 2215 UTC 16 January 2018
Temperature: -3.0°C (27°F)
Dewpoint: -3.0°C (27°F) [RH = 100%]
Pressure (altimeter): 30.33 inches Hg (1027.2 mb)
Winds: from the NW (310 degrees) at 9 MPH (8 knots; 4.2 m/s)
gusting to 17 MPH (15 knots; 7.8 m/s)
Visibility: 0.50 miles (0.80 km)
Ceiling: 400 feet AGL
Clouds: overcast cloud deck at 400 feet AGL
Weather: FZFG  (freezing fog)

METAR text: KIDI 162155Z AUTO 27006KT 1/2SM BR OVC006 M02/M03 A3033 RMK A01
Conditions at: KIDI (INDIANA/STEWART , PA, US) observed 2155 UTC 16 January 2018
Temperature: -2.0°C (28°F)
Dewpoint: -3.0°C (27°F) [RH = 93%]
Pressure (altimeter): 30.33 inches Hg (1027.2 mb)
Winds: from the W (270 degrees) at 7 MPH (6 knots; 3.1 m/s)
Visibility: 0.50 miles (0.80 km)
Ceiling: 600 feet AGL
Clouds: overcast cloud deck at 600 feet AGL
Weather: BR  (mist)

METAR text: KIDI 162135Z AUTO 24005KT 3/4SM BR OVC006 M02/M03 A3033 RMK A01
Conditions at: KIDI (INDIANA/STEWART , PA, US) observed 2135 UTC 16 January 2018
Temperature: -2.0°C (28°F)
Dewpoint: -3.0°C (27°F) [RH = 93%]
Pressure (altimeter): 30.33 inches Hg (1027.2 mb)
Winds: from the WSW (240 degrees) at 6 MPH (5 knots; 2.6 m/s)
Visibility: 0.75 miles (1.21 km)
Ceiling: 600 feet AGL
Clouds: overcast cloud deck at 600 feet AGL
Weather: BR  (mist)

METAR text: KIDI 162115Z AUTO 21004KT 1SM BR BKN006 BKN012 OVC027 M02/M03 A3033 RMK A01
Conditions at: KIDI (INDIANA/STEWART , PA, US) observed 2115 UTC 16 January 2018
Temperature: -2.0°C (28°F)
Dewpoint: -3.0°C (27°F) [RH = 93%]
Pressure (altimeter): 30.33 inches Hg (1027.2 mb)
Winds: from the SSW (210 degrees) at 5 MPH (4 knots; 2.1 m/s)
Visibility: 1.00 miles (1.61 km)
Ceiling: 600 feet AGL
Clouds: broken clouds at 600 feet AGL
broken clouds at 1200 feet AGL
overcast cloud deck at 2700 feet AGL
Weather: BR  (mist)

METAR text: KIDI 162055Z AUTO 21004KT 1SM BR BKN004 BKN012 OVC028 M02/M03 A3032 RMK A01
Conditions at: KIDI (INDIANA/STEWART , PA, US) observed 2055 UTC 16 January 2018
Temperature: -2.0°C (28°F)
Dewpoint: -3.0°C (27°F) [RH = 93%]
Pressure (altimeter): 30.32 inches Hg (1026.8 mb)
Winds: from the SSW (210 degrees) at 5 MPH (4 knots; 2.1 m/s)
Visibility: 1.00 miles (1.61 km)
Ceiling: 400 feet AGL
Clouds: broken clouds at 400 feet AGL
broken clouds at 1200 feet AGL
overcast cloud deck at 2800 feet AGL
Weather: BR  (mist)

METAR text: KIDI 162035Z AUTO 21004KT 3/4SM BR OVC005 M02/M03 A3032 RMK A01
Conditions at: KIDI (INDIANA/STEWART , PA, US) observed 2035 UTC 16 January 2018
Temperature: -2.0°C (28°F)
Dewpoint: -3.0°C (27°F) [RH = 93%]
Pressure (altimeter): 30.32 inches Hg (1026.8 mb)
Winds: from the SSW (210 degrees) at 5 MPH (4 knots; 2.1 m/s)
Visibility: 0.75 miles (1.21 km)
Ceiling: 500 feet AGL
Clouds: overcast cloud deck at 500 feet AGL
Weather: BR  (mist)

METAR text: KIDI 162015Z AUTO 00000KT 3/4SM BR OVC004 M02/M03 A3032 RMK A01
Conditions at: KIDI (INDIANA/STEWART , PA, US) observed 2015 UTC 16 January 2018
Temperature: -2.0°C (28°F)
Dewpoint: -3.0°C (27°F) [RH = 93%]
Pressure (altimeter): 30.32 inches Hg (1026.8 mb)
Winds: calm
Visibility: 0.75 miles (1.21 km)
Ceiling: 400 feet AGL
Clouds: overcast cloud deck at 400 feet AGL
Weather: BR  (mist)

METAR text: KIDI 161955Z AUTO 00000KT 1 1/4SM BR SCT005 BKN009 OVC024 M02/M03 A3032 RMK A01
Conditions at: KIDI (INDIANA/STEWART , PA, US) observed 1955 UTC 16 January 2018
Temperature: -2.0°C (28°F)
Dewpoint: -3.0°C (27°F) [RH = 93%]
Pressure (altimeter): 30.32 inches Hg (1026.8 mb)
Winds: calm
Visibility: 1.25 miles (2.01 km)
Ceiling: 900 feet AGL
Clouds: scattered clouds at 500 feet AGL
broken clouds at 900 feet AGL
overcast cloud deck at 2400 feet AGL
Weather: BR  (mist)

METAR text: KIDI 161935Z AUTO 00000KT 1 1/2SM BR BKN009 BKN013 OVC022 M02/M03 A3032 RMK A01
Conditions at: KIDI (INDIANA/STEWART , PA, US) observed 1935 UTC 16 January 2018
Temperature: -2.0°C (28°F)
Dewpoint: -3.0°C (27°F) [RH = 93%]
Pressure (altimeter): 30.32 inches Hg (1026.8 mb)
Winds: calm
Visibility: 1.50 miles (2.41 km)
Ceiling: 900 feet AGL
Clouds: broken clouds at 900 feet AGL
broken clouds at 1300 feet AGL
overcast cloud deck at 2200 feet AGL
Weather: BR  (mist)

METAR text: KIDI 161915Z AUTO 00000KT 1 1/2SM BR SCT011 BKN020 OVC025 M02/M03 A3032 RMK A01
Conditions at: KIDI (INDIANA/STEWART , PA, US) observed 1915 UTC 16 January 2018
Temperature: -2.0°C (28°F)
Dewpoint: -3.0°C (27°F) [RH = 93%]
Pressure (altimeter): 30.32 inches Hg (1026.8 mb)
Winds: calm
Visibility: 1.50 miles (2.41 km)
Ceiling: 2000 feet AGL
Clouds: scattered clouds at 1100 feet AGL
broken clouds at 2000 feet AGL
overcast cloud deck at 2500 feet AGL
Weather: BR  (mist)

METAR text: KIDI 161855Z AUTO 00000KT 1 1/2SM BR SCT012 BKN019 OVC026 M02/M03 A3032 RMK A01
Conditions at: KIDI (INDIANA/STEWART , PA, US) observed 1855 UTC 16 January 2018
Temperature: -2.0°C (28°F)
Dewpoint: -3.0°C (27°F) [RH = 93%]
Pressure (altimeter): 30.32 inches Hg (1026.8 mb)
Winds: calm
Visibility: 1.50 miles (2.41 km)
Ceiling: 1900 feet AGL
Clouds: scattered clouds at 1200 feet AGL
broken clouds at 1900 feet AGL
overcast cloud deck at 2600 feet AGL
Weather: BR  (mist)

METAR text: KIDI 161835Z AUTO 27004KT 1 1/4SM BR OVC018 M02/M03 A3033 RMK A01
Conditions at: KIDI (INDIANA/STEWART , PA, US) observed 1835 UTC 16 January 2018
Temperature: -2.0°C (28°F)
Dewpoint: -3.0°C (27°F) [RH = 93%]
Pressure (altimeter): 30.33 inches Hg (1027.2 mb)
Winds: from the W (270 degrees) at 5 MPH (4 knots; 2.1 m/s)
Visibility: 1.25 miles (2.01 km)
Ceiling: 1800 feet AGL
Clouds: overcast cloud deck at 1800 feet AGL
Weather: BR  (mist)

METAR text: KIDI 161815Z AUTO 26007KT 1 3/4SM BR OVC016 M02/M04 A3033 RMK A01
Conditions at: KIDI (INDIANA/STEWART , PA, US) observed 1815 UTC 16 January 2018
Temperature: -2.0°C (28°F)
Dewpoint: -4.0°C (25°F) [RH = 86%]
Pressure (altimeter): 30.33 inches Hg (1027.2 mb)
Winds: from the W (260 degrees) at 8 MPH (7 knots; 3.6 m/s)
Visibility: 1.75 miles (2.82 km)
Ceiling: 1600 feet AGL
Clouds: overcast cloud deck at 1600 feet AGL
Weather: BR  (mist)

METAR text: KIDI 161755Z AUTO 26006KT 7SM OVC015 M02/M03 A3034 RMK A01
Conditions at: KIDI (INDIANA/STEWART , PA, US) observed 1755 UTC 16 January 2018
Temperature: -2.0°C (28°F)
Dewpoint: -3.0°C (27°F) [RH = 93%]
Pressure (altimeter): 30.34 inches Hg (1027.5 mb)
Winds: from the W (260 degrees) at 7 MPH (6 knots; 3.1 m/s)
Visibility: 7 miles (11 km)
Ceiling: 1500 feet AGL
Clouds: overcast cloud deck at 1500 feet AGL
Weather: automated observation with no human augmentation;
there may or may not be significant weather present at this time

METAR text: KIDI 161735Z AUTO 24004KT 9SM BKN012 OVC049 M02/M03 A3035 RMK A01
Conditions at: KIDI (INDIANA/STEWART , PA, US) observed 1735 UTC 16 January 2018
Temperature: -2.0°C (28°F)
Dewpoint: -3.0°C (27°F) [RH = 93%]
Pressure (altimeter): 30.35 inches Hg (1027.9 mb)
Winds: from the WSW (240 degrees) at 5 MPH (4 knots; 2.1 m/s)
Visibility: 9 miles (14 km)
Ceiling: 1200 feet AGL
Clouds: broken clouds at 1200 feet AGL
overcast cloud deck at 4900 feet AGL
Weather: automated observation with no human augmentation;
there may or may not be significant weather present at this time

METAR text: KIDI 161715Z AUTO 23003KT 5SM BR FEW012 FEW029 BKN050 M02/M03 A3036 RMK A01
Conditions at: KIDI (INDIANA/STEWART , PA, US) observed 1715 UTC 16 January 2018
Temperature: -2.0°C (28°F)
Dewpoint: -3.0°C (27°F) [RH = 93%]
Pressure (altimeter): 30.36 inches Hg (1028.2 mb)
Winds: from the SW (230 degrees) at 3 MPH (3 knots; 1.6 m/s)
Visibility: 5 miles (8 km)
Ceiling: 5000 feet AGL
Clouds: few clouds at 1200 feet AGL
few clouds at 2900 feet AGL
broken clouds at 5000 feet AGL
Weather: BR  (mist)

METAR text: KIDI 161655Z AUTO 23005KT 2SM BR FEW027 M02/M03 A3036 RMK A01
Conditions at: KIDI (INDIANA/STEWART , PA, US) observed 1655 UTC 16 January 2018
Temperature: -2.0°C (28°F)
Dewpoint: -3.0°C (27°F) [RH = 93%]
Pressure (altimeter): 30.36 inches Hg (1028.2 mb)
Winds: from the SW (230 degrees) at 6 MPH (5 knots; 2.6 m/s)
Visibility: 2.00 miles (3.22 km)
Ceiling: at least 12,000 feet AGL
Clouds: few clouds at 2700 feet AGL
Weather: BR  (mist)

METAR text: KIDI 161635Z AUTO 22004KT 1 3/4SM BR SCT010 BKN027 BKN033 M02/M03 A3038 RMK A01
Conditions at: KIDI (INDIANA/STEWART , PA, US) observed 1635 UTC 16 January 2018
Temperature: -2.0°C (28°F)
Dewpoint: -3.0°C (27°F) [RH = 93%]
Pressure (altimeter): 30.38 inches Hg (1028.9 mb)
Winds: from the SW (220 degrees) at 5 MPH (4 knots; 2.1 m/s)
Visibility: 1.75 miles (2.82 km)
Ceiling: 2700 feet AGL
Clouds: scattered clouds at 1000 feet AGL
broken clouds at 2700 feet AGL
broken clouds at 3300 feet AGL
Weather: BR  (mist)

METAR text: KIDI 161615Z AUTO 22004KT 3SM BR BKN028 BKN038 M02/M03 A3038 RMK A01
Conditions at: KIDI (INDIANA/STEWART , PA, US) observed 1615 UTC 16 January 2018
Temperature: -2.0°C (28°F)
Dewpoint: -3.0°C (27°F) [RH = 93%]
Pressure (altimeter): 30.38 inches Hg (1028.9 mb)
Winds: from the SW (220 degrees) at 5 MPH (4 knots; 2.1 m/s)
Visibility: 3 miles (5 km)
Ceiling: 2800 feet AGL
Clouds: broken clouds at 2800 feet AGL
broken clouds at 3800 feet AGL
Weather: BR  (mist)

METAR text: KIDI 161555Z AUTO 21005KT 3SM BR FEW011 FEW021 SCT029 M02/M03 A3038 RMK A01
Conditions at: KIDI (INDIANA/STEWART , PA, US) observed 1555 UTC 16 January 2018
Temperature: -2.0°C (28°F)
Dewpoint: -3.0°C (27°F) [RH = 93%]
Pressure (altimeter): 30.38 inches Hg (1028.9 mb)
Winds: from the SSW (210 degrees) at 6 MPH (5 knots; 2.6 m/s)
Visibility: 3 miles (5 km)
Ceiling: at least 12,000 feet AGL
Clouds: few clouds at 1100 feet AGL
few clouds at 2100 feet AGL
scattered clouds at 2900 feet AGL
Weather: BR  (mist)

METAR text: KIDI 161535Z AUTO 21004KT 2 1/2SM BR FEW011 FEW021 BKN030 M02/M03 A3039 RMK A01
Conditions at: KIDI (INDIANA/STEWART , PA, US) observed 1535 UTC 16 January 2018
Temperature: -2.0°C (28°F)
Dewpoint: -3.0°C (27°F) [RH = 93%]
Pressure (altimeter): 30.39 inches Hg (1029.2 mb)
Winds: from the SSW (210 degrees) at 5 MPH (4 knots; 2.1 m/s)
Visibility: 2.50 miles (4.02 km)
Ceiling: 3000 feet AGL
Clouds: few clouds at 1100 feet AGL
few clouds at 2100 feet AGL
broken clouds at 3000 feet AGL
Weather: BR  (mist)

METAR text: KIDI 161515Z AUTO 22005KT 1 1/2SM BR SCT008 BKN024 OVC030 M03/M03 A3039 RMK A01
Conditions at: KIDI (INDIANA/STEWART , PA, US) observed 1515 UTC 16 January 2018
Temperature: -3.0°C (27°F)
Dewpoint: -3.0°C (27°F) [RH = 100%]
Pressure (altimeter): 30.39 inches Hg (1029.2 mb)
Winds: from the SW (220 degrees) at 6 MPH (5 knots; 2.6 m/s)
Visibility: 1.50 miles (2.41 km)
Ceiling: 2400 feet AGL
Clouds: scattered clouds at 800 feet AGL
broken clouds at 2400 feet AGL
overcast cloud deck at 3000 feet AGL
Weather: BR  (mist)

METAR text: KIDI 161455Z AUTO 22004KT 3SM BR SCT007 BKN025 OVC030 M03/M03 A3039 RMK A01
Conditions at: KIDI (INDIANA/STEWART , PA, US) observed 1455 UTC 16 January 2018
Temperature: -3.0°C (27°F)
Dewpoint: -3.0°C (27°F) [RH = 100%]
Pressure (altimeter): 30.39 inches Hg (1029.2 mb)
Winds: from the SW (220 degrees) at 5 MPH (4 knots; 2.1 m/s)
Visibility: 3 miles (5 km)
Ceiling: 2500 feet AGL
Clouds: scattered clouds at 700 feet AGL
broken clouds at 2500 feet AGL
overcast cloud deck at 3000 feet AGL
Weather: BR  (mist)

METAR text: KIDI 161435Z AUTO 00000KT 5SM BR OVC007 M03/M04 A3038 RMK A01
Conditions at: KIDI (INDIANA/STEWART , PA, US) observed 1435 UTC 16 January 2018
Temperature: -3.0°C (27°F)
Dewpoint: -4.0°C (25°F) [RH = 93%]
Pressure (altimeter): 30.38 inches Hg (1028.9 mb)
Winds: calm
Visibility: 5 miles (8 km)
Ceiling: 700 feet AGL
Clouds: overcast cloud deck at 700 feet AGL
Weather: BR  (mist)

METAR text: KIDI 161415Z AUTO 00000KT 4SM BR OVC007 M03/M04 A3038 RMK A01
Conditions at: KIDI (INDIANA/STEWART , PA, US) observed 1415 UTC 16 January 2018
Temperature: -3.0°C (27°F)
Dewpoint: -4.0°C (25°F) [RH = 93%]
Pressure (altimeter): 30.38 inches Hg (1028.9 mb)
Winds: calm
Visibility: 4 miles (6 km)
Ceiling: 700 feet AGL
Clouds: overcast cloud deck at 700 feet AGL
Weather: BR  (mist)

METAR text: KIDI 161355Z AUTO 00000KT 3SM BR OVC008 M03/M04 A3038 RMK A01
Conditions at: KIDI (INDIANA/STEWART , PA, US) observed 1355 UTC 16 January 2018
Temperature: -3.0°C (27°F)
Dewpoint: -4.0°C (25°F) [RH = 93%]
Pressure (altimeter): 30.38 inches Hg (1028.9 mb)
Winds: calm
Visibility: 3 miles (5 km)
Ceiling: 800 feet AGL
Clouds: overcast cloud deck at 800 feet AGL
Weather: BR  (mist)

METAR text: KIDI 161335Z AUTO 22004KT 3SM BR BKN011 OVC032 M04/M04 A3038 RMK A01
Conditions at: KIDI (INDIANA/STEWART , PA, US) observed 1335 UTC 16 January 2018
Temperature: -4.0°C (25°F)
Dewpoint: -4.0°C (25°F) [RH = 100%]
Pressure (altimeter): 30.38 inches Hg (1028.9 mb)
Winds: from the SW (220 degrees) at 5 MPH (4 knots; 2.1 m/s)
Visibility: 3 miles (5 km)
Ceiling: 1100 feet AGL
Clouds: broken clouds at 1100 feet AGL
overcast cloud deck at 3200 feet AGL
Weather: BR  (mist)

METAR text: KIDI 161315Z AUTO 00000KT 3SM BR FEW013 BKN031 OVC037 M04/M04 A3037 RMK A01
Conditions at: KIDI (INDIANA/STEWART , PA, US) observed 1315 UTC 16 January 2018
Temperature: -4.0°C (25°F)
Dewpoint: -4.0°C (25°F) [RH = 100%]
Pressure (altimeter): 30.37 inches Hg (1028.5 mb)
Winds: calm
Visibility: 3 miles (5 km)
Ceiling: 3100 feet AGL
Clouds: few clouds at 1300 feet AGL
broken clouds at 3100 feet AGL
overcast cloud deck at 3700 feet AGL
Weather: BR  (mist)

METAR text: KIDI 161255Z AUTO 22003KT 2 1/2SM BR SCT027 OVC036 M04/M04 A3037 RMK A01
Conditions at: KIDI (INDIANA/STEWART , PA, US) observed 1255 UTC 16 January 2018
Temperature: -4.0°C (25°F)
Dewpoint: -4.0°C (25°F) [RH = 100%]
Pressure (altimeter): 30.37 inches Hg (1028.5 mb)
Winds: from the SW (220 degrees) at 3 MPH (3 knots; 1.6 m/s)
Visibility: 2.50 miles (4.02 km)
Ceiling: 3600 feet AGL
Clouds: scattered clouds at 2700 feet AGL
overcast cloud deck at 3600 feet AGL
Weather: BR  (mist)

METAR text: KIDI 161235Z AUTO 23003KT 5SM BR FEW006 SCT022 OVC036 M04/M04 A3038 RMK A01
Conditions at: KIDI (INDIANA/STEWART , PA, US) observed 1235 UTC 16 January 2018
Temperature: -4.0°C (25°F)
Dewpoint: -4.0°C (25°F) [RH = 100%]
Pressure (altimeter): 30.38 inches Hg (1028.9 mb)
Winds: from the SW (230 degrees) at 3 MPH (3 knots; 1.6 m/s)
Visibility: 5 miles (8 km)
Ceiling: 3600 feet AGL
Clouds: few clouds at 600 feet AGL
scattered clouds at 2200 feet AGL
overcast cloud deck at 3600 feet AGL
Weather: BR  (mist)

METAR text: KIDI 161215Z AUTO 22004KT 4SM BR FEW006 SCT010 BKN016 M04/M04 A3037 RMK A01
Conditions at: KIDI (INDIANA/STEWART , PA, US) observed 1215 UTC 16 January 2018
Temperature: -4.0°C (25°F)
Dewpoint: -4.0°C (25°F) [RH = 100%]
Pressure (altimeter): 30.37 inches Hg (1028.5 mb)
Winds: from the SW (220 degrees) at 5 MPH (4 knots; 2.1 m/s)
Visibility: 4 miles (6 km)
Ceiling: 1600 feet AGL
Clouds: few clouds at 600 feet AGL
scattered clouds at 1000 feet AGL
broken clouds at 1600 feet AGL
Weather: BR  (mist)

METAR text: KIDI 161155Z AUTO 24004KT 2 1/2SM BR SCT004 BKN010 OVC025 M03/M04 A3037 RMK A01
Conditions at: KIDI (INDIANA/STEWART , PA, US) observed 1155 UTC 16 January 2018
Temperature: -3.0°C (27°F)
Dewpoint: -4.0°C (25°F) [RH = 93%]
Pressure (altimeter): 30.37 inches Hg (1028.5 mb)
Winds: from the WSW (240 degrees) at 5 MPH (4 knots; 2.1 m/s)
Visibility: 2.50 miles (4.02 km)
Ceiling: 1000 feet AGL
Clouds: scattered clouds at 400 feet AGL
broken clouds at 1000 feet AGL
overcast cloud deck at 2500 feet AGL
Weather: BR  (mist)

METAR text: KIDI 161135Z AUTO 23005KT 1 1/4SM BR BKN003 OVC024 M03/M04 A3037 RMK A01
Conditions at: KIDI (INDIANA/STEWART , PA, US) observed 1135 UTC 16 January 2018
Temperature: -3.0°C (27°F)
Dewpoint: -4.0°C (25°F) [RH = 93%]
Pressure (altimeter): 30.37 inches Hg (1028.5 mb)
Winds: from the SW (230 degrees) at 6 MPH (5 knots; 2.6 m/s)
Visibility: 1.25 miles (2.01 km)
Ceiling: 300 feet AGL
Clouds: broken clouds at 300 feet AGL
overcast cloud deck at 2400 feet AGL
Weather: BR  (mist)

METAR text: KIDI 161115Z AUTO 22004KT 3SM BR FEW025 SCT029 OVC037 M03/M04 A3036 RMK A01
Conditions at: KIDI (INDIANA/STEWART , PA, US) observed 1115 UTC 16 January 2018
Temperature: -3.0°C (27°F)
Dewpoint: -4.0°C (25°F) [RH = 93%]
Pressure (altimeter): 30.36 inches Hg (1028.2 mb)
Winds: from the SW (220 degrees) at 5 MPH (4 knots; 2.1 m/s)
Visibility: 3 miles (5 km)
Ceiling: 3700 feet AGL
Clouds: few clouds at 2500 feet AGL
scattered clouds at 2900 feet AGL
overcast cloud deck at 3700 feet AGL
Weather: BR  (mist)

METAR text: KIDI 161055Z AUTO 23005KT 3SM BR FEW015 OVC036 M03/M04 A3036 RMK A01
Conditions at: KIDI (INDIANA/STEWART , PA, US) observed 1055 UTC 16 January 2018
Temperature: -3.0°C (27°F)
Dewpoint: -4.0°C (25°F) [RH = 93%]
Pressure (altimeter): 30.36 inches Hg (1028.2 mb)
Winds: from the SW (230 degrees) at 6 MPH (5 knots; 2.6 m/s)
Visibility: 3 miles (5 km)
Ceiling: 3600 feet AGL
Clouds: few clouds at 1500 feet AGL
overcast cloud deck at 3600 feet AGL
Weather: BR  (mist)

METAR text: KIDI 161035Z AUTO 22005KT 6SM BR FEW010 BKN014 OVC034 M03/M04 A3036 RMK A01
Conditions at: KIDI (INDIANA/STEWART , PA, US) observed 1035 UTC 16 January 2018
Temperature: -3.0°C (27°F)
Dewpoint: -4.0°C (25°F) [RH = 93%]
Pressure (altimeter): 30.36 inches Hg (1028.2 mb)
Winds: from the SW (220 degrees) at 6 MPH (5 knots; 2.6 m/s)
Visibility: 6 miles (10 km)
Ceiling: 1400 feet AGL
Clouds: few clouds at 1000 feet AGL
broken clouds at 1400 feet AGL
overcast cloud deck at 3400 feet AGL
Weather: BR  (mist)

METAR text: KIDI 161015Z AUTO 24005KT 5SM BR BKN015 OVC033 M03/M04 A3036 RMK A01
Conditions at: KIDI (INDIANA/STEWART , PA, US) observed 1015 UTC 16 January 2018
Temperature: -3.0°C (27°F)
Dewpoint: -4.0°C (25°F) [RH = 93%]
Pressure (altimeter): 30.36 inches Hg (1028.2 mb)
Winds: from the WSW (240 degrees) at 6 MPH (5 knots; 2.6 m/s)
Visibility: 5 miles (8 km)
Ceiling: 1500 feet AGL
Clouds: broken clouds at 1500 feet AGL
overcast cloud deck at 3300 feet AGL
Weather: BR  (mist)

METAR text: KIDI 160955Z AUTO 23006KT 7SM BKN012 BKN016 OVC035 M03/M04 A3035 RMK A01
Conditions at: KIDI (INDIANA/STEWART , PA, US) observed 0955 UTC 16 January 2018
Temperature: -3.0°C (27°F)
Dewpoint: -4.0°C (25°F) [RH = 93%]
Pressure (altimeter): 30.35 inches Hg (1027.9 mb)
Winds: from the SW (230 degrees) at 7 MPH (6 knots; 3.1 m/s)
Visibility: 7 miles (11 km)
Ceiling: 1200 feet AGL
Clouds: broken clouds at 1200 feet AGL
broken clouds at 1600 feet AGL
overcast cloud deck at 3500 feet AGL
Weather: automated observation with no human augmentation;
there may or may not be significant weather present at this time

METAR text: KIDI 160935Z AUTO 24005KT 9SM OVC035 M03/M04 A3034 RMK A01
Conditions at: KIDI (INDIANA/STEWART , PA, US) observed 0935 UTC 16 January 2018
Temperature: -3.0°C (27°F)
Dewpoint: -4.0°C (25°F) [RH = 93%]
Pressure (altimeter): 30.34 inches Hg (1027.5 mb)
Winds: from the WSW (240 degrees) at 6 MPH (5 knots; 2.6 m/s)
Visibility: 9 miles (14 km)
Ceiling: 3500 feet AGL
Clouds: overcast cloud deck at 3500 feet AGL
Weather: automated observation with no human augmentation;
there may or may not be significant weather present at this time

METAR text: KIDI 160915Z AUTO 23005KT 6SM BR FEW013 FEW023 OVC035 M03/M04 A3035 RMK A01
Conditions at: KIDI (INDIANA/STEWART , PA, US) observed 0915 UTC 16 January 2018
Temperature: -3.0°C (27°F)
Dewpoint: -4.0°C (25°F) [RH = 93%]
Pressure (altimeter): 30.35 inches Hg (1027.9 mb)
Winds: from the SW (230 degrees) at 6 MPH (5 knots; 2.6 m/s)
Visibility: 6 miles (10 km)
Ceiling: 3500 feet AGL
Clouds: few clouds at 1300 feet AGL
few clouds at 2300 feet AGL
overcast cloud deck at 3500 feet AGL
Weather: BR  (mist)

METAR text: KIDI 160855Z AUTO 23007KT 9SM SCT013 OVC034 M03/M04 A3034 RMK A01
Conditions at: KIDI (INDIANA/STEWART , PA, US) observed 0855 UTC 16 January 2018
Temperature: -3.0°C (27°F)
Dewpoint: -4.0°C (25°F) [RH = 93%]
Pressure (altimeter): 30.34 inches Hg (1027.5 mb)
Winds: from the SW (230 degrees) at 8 MPH (7 knots; 3.6 m/s)
Visibility: 9 miles (14 km)
Ceiling: 3400 feet AGL
Clouds: scattered clouds at 1300 feet AGL
overcast cloud deck at 3400 feet AGL
Weather: automated observation with no human augmentation;
there may or may not be significant weather present at this time

METAR text: KIDI 160835Z AUTO 23006KT 6SM BR BKN011 SCT019 OVC034 M03/M04 A3034 RMK A01
Conditions at: KIDI (INDIANA/STEWART , PA, US) observed 0835 UTC 16 January 2018
Temperature: -3.0°C (27°F)
Dewpoint: -4.0°C (25°F) [RH = 93%]
Pressure (altimeter): 30.34 inches Hg (1027.5 mb)
Winds: from the SW (230 degrees) at 7 MPH (6 knots; 3.1 m/s)
Visibility: 6 miles (10 km)
Ceiling: 1100 feet AGL
Clouds: broken clouds at 1100 feet AGL
scattered clouds at 1900 feet AGL
overcast cloud deck at 3400 feet AGL
Weather: BR  (mist)

METAR text: KIDI 160815Z AUTO 22006KT 5SM BR BKN012 OVC034 M03/M04 A3034 RMK A01
Conditions at: KIDI (INDIANA/STEWART , PA, US) observed 0815 UTC 16 January 2018
Temperature: -3.0°C (27°F)
Dewpoint: -4.0°C (25°F) [RH = 93%]
Pressure (altimeter): 30.34 inches Hg (1027.5 mb)
Winds: from the SW (220 degrees) at 7 MPH (6 knots; 3.1 m/s)
Visibility: 5 miles (8 km)
Ceiling: 1200 feet AGL
Clouds: broken clouds at 1200 feet AGL
overcast cloud deck at 3400 feet AGL
Weather: BR  (mist)

METAR text: KIDI 160755Z AUTO 25004KT 4SM BR OVC012 M04/M05 A3034 RMK A01
Conditions at: KIDI (INDIANA/STEWART , PA, US) observed 0755 UTC 16 January 2018
Temperature: -4.0°C (25°F)
Dewpoint: -5.0°C (23°F) [RH = 93%]
Pressure (altimeter): 30.34 inches Hg (1027.5 mb)
Winds: from the WSW (250 degrees) at 5 MPH (4 knots; 2.1 m/s)
Visibility: 4 miles (6 km)
Ceiling: 1200 feet AGL
Clouds: overcast cloud deck at 1200 feet AGL
Weather: BR  (mist)

METAR text: KIDI 160735Z AUTO 00000KT 5SM BR BKN014 OVC025 M04/M05 A3034 RMK A01
Conditions at: KIDI (INDIANA/STEWART , PA, US) observed 0735 UTC 16 January 2018
Temperature: -4.0°C (25°F)
Dewpoint: -5.0°C (23°F) [RH = 93%]
Pressure (altimeter): 30.34 inches Hg (1027.5 mb)
Winds: calm
Visibility: 5 miles (8 km)
Ceiling: 1400 feet AGL
Clouds: broken clouds at 1400 feet AGL
overcast cloud deck at 2500 feet AGL
Weather: BR  (mist)

METAR text: KIDI 160715Z AUTO 22004KT 4SM BR BKN026 BKN030 OVC041 M04/M05 A3033 RMK A01
Conditions at: KIDI (INDIANA/STEWART , PA, US) observed 0715 UTC 16 January 2018
Temperature: -4.0°C (25°F)
Dewpoint: -5.0°C (23°F) [RH = 93%]
Pressure (altimeter): 30.33 inches Hg (1027.2 mb)
Winds: from the SW (220 degrees) at 5 MPH (4 knots; 2.1 m/s)
Visibility: 4 miles (6 km)
Ceiling: 2600 feet AGL
Clouds: broken clouds at 2600 feet AGL
broken clouds at 3000 feet AGL
overcast cloud deck at 4100 feet AGL
Weather: BR  (mist)

METAR text: KIDI 160655Z AUTO 22004KT 3SM BR FEW003 SCT023 OVC041 M04/M06 A3032 RMK A01
Conditions at: KIDI (INDIANA/STEWART , PA, US) observed 0655 UTC 16 January 2018
Temperature: -4.0°C (25°F)
Dewpoint: -6.0°C (21°F) [RH = 86%]
Pressure (altimeter): 30.32 inches Hg (1026.8 mb)
Winds: from the SW (220 degrees) at 5 MPH (4 knots; 2.1 m/s)
Visibility: 3 miles (5 km)
Ceiling: 4100 feet AGL
Clouds: few clouds at 300 feet AGL
scattered clouds at 2300 feet AGL
overcast cloud deck at 4100 feet AGL
Weather: BR  (mist)

METAR text: KIDI 160635Z AUTO 21005KT 3SM HZ FEW023 SCT029 OVC038 M04/M07 A3032 RMK A01
Conditions at: KIDI (INDIANA/STEWART , PA, US) observed 0635 UTC 16 January 2018
Temperature: -4.0°C (25°F)
Dewpoint: -7.0°C (19°F) [RH = 80%]
Pressure (altimeter): 30.32 inches Hg (1026.8 mb)
Winds: from the SSW (210 degrees) at 6 MPH (5 knots; 2.6 m/s)
Visibility: 3 miles (5 km)
Ceiling: 3800 feet AGL
Clouds: few clouds at 2300 feet AGL
scattered clouds at 2900 feet AGL
overcast cloud deck at 3800 feet AGL
Weather: HZ  (haze)

METAR text: KIDI 160615Z AUTO 00000KT 5SM HZ FEW030 BKN040 OVC047 M04/M07 A3031 RMK A01
Conditions at: KIDI (INDIANA/STEWART , PA, US) observed 0615 UTC 16 January 2018
Temperature: -4.0°C (25°F)
Dewpoint: -7.0°C (19°F) [RH = 80%]
Pressure (altimeter): 30.31 inches Hg (1026.5 mb)
Winds: calm
Visibility: 5 miles (8 km)
Ceiling: 4000 feet AGL
Clouds: few clouds at 3000 feet AGL
broken clouds at 4000 feet AGL
overcast cloud deck at 4700 feet AGL
Weather: HZ  (haze)

METAR text: KIDI 160555Z AUTO 18004KT 10SM FEW034 OVC046 M04/M08 A3030 RMK A01
Conditions at: KIDI (INDIANA/STEWART , PA, US) observed 0555 UTC 16 January 2018
Temperature: -4.0°C (25°F)
Dewpoint: -8.0°C (18°F) [RH = 74%]
Pressure (altimeter): 30.30 inches Hg (1026.2 mb)
Winds: from the S (180 degrees) at 5 MPH (4 knots; 2.1 m/s)
Visibility: 10 or more miles (16+ km)
Ceiling: 4600 feet AGL
Clouds: few clouds at 3400 feet AGL
overcast cloud deck at 4600 feet AGL
Weather: automated observation with no human augmentation;
there may or may not be significant weather present at this time

METAR text: KIDI 160535Z AUTO 17006KT 10SM OVC042 M04/M09 A3030 RMK A01
Conditions at: KIDI (INDIANA/STEWART , PA, US) observed 0535 UTC 16 January 2018
Temperature: -4.0°C (25°F)
Dewpoint: -9.0°C (16°F) [RH = 68%]
Pressure (altimeter): 30.30 inches Hg (1026.2 mb)
Winds: from the S (170 degrees) at 7 MPH (6 knots; 3.1 m/s)
Visibility: 10 or more miles (16+ km)
Ceiling: 4200 feet AGL
Clouds: overcast cloud deck at 4200 feet AGL
Weather: automated observation with no human augmentation;
there may or may not be significant weather present at this time

METAR text: KIDI 160515Z AUTO 17007KT 10SM OVC041 M04/M09 A3031 RMK A01
Conditions at: KIDI (INDIANA/STEWART , PA, US) observed 0515 UTC 16 January 2018
Temperature: -4.0°C (25°F)
Dewpoint: -9.0°C (16°F) [RH = 68%]
Pressure (altimeter): 30.31 inches Hg (1026.5 mb)
Winds: from the S (170 degrees) at 8 MPH (7 knots; 3.6 m/s)
Visibility: 10 or more miles (16+ km)
Ceiling: 4100 feet AGL
Clouds: overcast cloud deck at 4100 feet AGL
Weather: automated observation with no human augmentation;
there may or may not be significant weather present at this time

METAR text: KIDI 160455Z AUTO 16008KT 10SM OVC043 M04/M09 A3031 RMK A01
Conditions at: KIDI (INDIANA/STEWART , PA, US) observed 0455 UTC 16 January 2018
Temperature: -4.0°C (25°F)
Dewpoint: -9.0°C (16°F) [RH = 68%]
Pressure (altimeter): 30.31 inches Hg (1026.5 mb)
Winds: from the SSE (160 degrees) at 9 MPH (8 knots; 4.2 m/s)
Visibility: 10 or more miles (16+ km)
Ceiling: 4300 feet AGL
Clouds: overcast cloud deck at 4300 feet AGL
Weather: automated observation with no human augmentation;
there may or may not be significant weather present at this time

METAR text: KIDI 160435Z AUTO 15007KT 10SM OVC044 M04/M09 A3031 RMK A01
Conditions at: KIDI (INDIANA/STEWART , PA, US) observed 0435 UTC 16 January 2018
Temperature: -4.0°C (25°F)
Dewpoint: -9.0°C (16°F) [RH = 68%]
Pressure (altimeter): 30.31 inches Hg (1026.5 mb)
Winds: from the SSE (150 degrees) at 8 MPH (7 knots; 3.6 m/s)
Visibility: 10 or more miles (16+ km)
Ceiling: 4400 feet AGL
Clouds: overcast cloud deck at 4400 feet AGL
Weather: automated observation with no human augmentation;
there may or may not be significant weather present at this time

METAR text: KIDI 160415Z AUTO 14007G12KT 10SM OVC045 M04/M08 A3032 RMK A01
Conditions at: KIDI (INDIANA/STEWART , PA, US) observed 0415 UTC 16 January 2018
Temperature: -4.0°C (25°F)
Dewpoint: -8.0°C (18°F) [RH = 74%]
Pressure (altimeter): 30.32 inches Hg (1026.8 mb)
Winds: from the SE (140 degrees) at 8 MPH (7 knots; 3.6 m/s)
gusting to 14 MPH (12 knots; 6.2 m/s)
Visibility: 10 or more miles (16+ km)
Ceiling: 4500 feet AGL
Clouds: overcast cloud deck at 4500 feet AGL
Weather: automated observation with no human augmentation;
there may or may not be significant weather present at this time

METAR text: KIDI 160355Z AUTO 15007KT 120V180 10SM OVC045 M04/M08 A3032 RMK A01
Conditions at: KIDI (INDIANA/STEWART , PA, US) observed 0355 UTC 16 January 2018
Temperature: -4.0°C (25°F)
Dewpoint: -8.0°C (18°F) [RH = 74%]
Pressure (altimeter): 30.32 inches Hg (1026.8 mb)
Winds: from the SSE (150 degrees) at 8 MPH (7 knots; 3.6 m/s)
Visibility: 10 or more miles (16+ km)
Ceiling: 4500 feet AGL
Clouds: overcast cloud deck at 4500 feet AGL
Weather: automated observation with no human augmentation;
there may or may not be significant weather present at this time

METAR text: KIDI 160335Z AUTO 15007KT 10SM BKN046 OVC050 M04/M08 A3033 RMK A01
Conditions at: KIDI (INDIANA/STEWART , PA, US) observed 0335 UTC 16 January 2018
Temperature: -4.0°C (25°F)
Dewpoint: -8.0°C (18°F) [RH = 74%]
Pressure (altimeter): 30.33 inches Hg (1027.2 mb)
Winds: from the SSE (150 degrees) at 8 MPH (7 knots; 3.6 m/s)
Visibility: 10 or more miles (16+ km)
Ceiling: 4600 feet AGL
Clouds: broken clouds at 4600 feet AGL
overcast cloud deck at 5000 feet AGL
Weather: automated observation with no human augmentation;
there may or may not be significant weather present at this time

METAR text: KIDI 160315Z AUTO 13006KT 10SM FEW036 FEW042 OVC050 M05/M07 A3033 RMK A01
Conditions at: KIDI (INDIANA/STEWART , PA, US) observed 0315 UTC 16 January 2018
Temperature: -5.0°C (23°F)
Dewpoint: -7.0°C (19°F) [RH = 86%]
Pressure (altimeter): 30.33 inches Hg (1027.2 mb)
Winds: from the SE (130 degrees) at 7 MPH (6 knots; 3.1 m/s)
Visibility: 10 or more miles (16+ km)
Ceiling: 5000 feet AGL
Clouds: few clouds at 3600 feet AGL
few clouds at 4200 feet AGL
overcast cloud deck at 5000 feet AGL
Weather: automated observation with no human augmentation;
there may or may not be significant weather present at this time